sensor_id;sensor_type;location;lat;lon;timestamp;pressure;altitude;pressure_sealevel;temperature;humidity
72685;BME280;61365;52.162;4.500;2023-01-29T00:02:03;102969.78;;;4.79;79.65
72685;BME280;61365;52.162;4.500;2023-01-29T00:04:30;102971.28;;;4.75;78.94
72685;BME280;61365;52.162;4.500;2023-01-29T00:06:57;102973.63;;;4.71;78.77
72685;BME280;61365;52.162;4.500;2023-01-29T00:09:24;102968.88;;;4.63;80.55
72685;BME280;61365;52.162;4.500;2023-01-29T00:11:50;102971.41;;;4.62;80.36
72685;BME280;61365;52.162;4.500;2023-01-29T00:14:16;102967.63;;;4.57;81.25
72685;BME280;61365;52.162;4.500;2023-01-29T00:16:43;102961.53;;;4.56;80.73
72685;BME280;61365;52.162;4.500;2023-01-29T00:19:09;102966.91;;;4.59;80.31
72685;BME280;61365;52.162;4.500;2023-01-29T00:21:35;102967.34;;;4.67;79.54
72685;BME280;61365;52.162;4.500;2023-01-29T00:24:02;102972.53;;;4.67;79.32
72685;BME280;61365;52.162;4.500;2023-01-29T00:26:29;102961.06;;;4.63;79.87
72685;BME280;61365;52.162;4.500;2023-01-29T00:28:55;102948.25;;;4.66;79.95
72685;BME280;61365;52.162;4.500;2023-01-29T00:31:23;102945.03;;;4.71;80.24
72685;BME280;61365;52.162;4.500;2023-01-29T00:33:51;102950.22;;;4.71;79.83
72685;BME280;61365;52.162;4.500;2023-01-29T00:36:19;102935.44;;;4.70;80.04
72685;BME280;61365;52.162;4.500;2023-01-29T00:38:46;102946.47;;;4.65;79.97
72685;BME280;61365;52.162;4.500;2023-01-29T00:41:20;102930.22;;;4.70;80.47
72685;BME280;61365;52.162;4.500;2023-01-29T00:44:06;102936.78;;;4.63;79.42
72685;BME280;61365;52.162;4.500;2023-01-29T00:46:50;102929.06;;;4.64;79.08
72685;BME280;61365;52.162;4.500;2023-01-29T00:49:17;102932.91;;;4.71;79.92
72685;BME280;61365;52.162;4.500;2023-01-29T00:51:43;102932.28;;;4.60;78.91
72685;BME280;61365;52.162;4.500;2023-01-29T00:54:29;102915.50;;;4.70;79.30
72685;BME280;61365;52.162;4.500;2023-01-29T00:56:56;102914.81;;;4.73;78.94
72685;BME280;61365;52.162;4.500;2023-01-29T00:59:22;102917.47;;;4.74;78.89
72685;BME280;61365;52.162;4.500;2023-01-29T01:01:49;102926.09;;;4.73;78.70
72685;BME280;61365;52.162;4.500;2023-01-29T01:04:34;102928.97;;;4.78;78.34
72685;BME280;61365;52.162;4.500;2023-01-29T01:07:00;102928.78;;;4.75;78.08
72685;BME280;61365;52.162;4.500;2023-01-29T01:09:26;102932.03;;;5.02;77.69
72685;BME280;61365;52.162;4.500;2023-01-29T01:12:11;102941.16;;;4.79;77.13
72685;BME280;61365;52.162;4.500;2023-01-29T01:14:37;102942.66;;;4.90;77.71
72685;BME280;61365;52.162;4.500;2023-01-29T01:17:08;102937.53;;;4.92;78.17
72685;BME280;61365;52.162;4.500;2023-01-29T01:19:34;102934.13;;;4.93;77.39
72685;BME280;61365;52.162;4.500;2023-01-29T01:22:01;102931.66;;;4.79;77.15
72685;BME280;61365;52.162;4.500;2023-01-29T01:24:30;102935.84;;;4.92;78.05
72685;BME280;61365;52.162;4.500;2023-01-29T01:26:56;102941.84;;;4.91;77.38
72685;BME280;61365;52.162;4.500;2023-01-29T01:29:23;102937.97;;;5.00;76.64
72685;BME280;61365;52.162;4.500;2023-01-29T01:31:49;102936.72;;;4.93;76.83
72685;BME280;61365;52.162;4.500;2023-01-29T01:34:19;102937.44;;;4.90;77.81
72685;BME280;61365;52.162;4.500;2023-01-29T01:36:47;102938.69;;;4.97;77.66
72685;BME280;61365;52.162;4.500;2023-01-29T01:39:14;102943.19;;;5.00;76.92
72685;BME280;61365;52.162;4.500;2023-01-29T01:41:40;102935.91;;;4.94;77.36
72685;BME280;61365;52.162;4.500;2023-01-29T01:47:25;102933.19;;;5.07;76.75
72685;BME280;61365;52.162;4.500;2023-01-29T01:50:00;102938.66;;;5.12;76.59
72685;BME280;61365;52.162;4.500;2023-01-29T01:52:35;102936.03;;;5.12;76.46
72685;BME280;61365;52.162;4.500;2023-01-29T01:55:08;102936.38;;;5.02;75.93
72685;BME280;61365;52.162;4.500;2023-01-29T01:57:39;102931.63;;;4.94;75.42
72685;BME280;61365;52.162;4.500;2023-01-29T02:00:11;102929.38;;;5.01;75.83
72685;BME280;61365;52.162;4.500;2023-01-29T02:02:43;102923.81;;;4.94;75.77
72685;BME280;61365;52.162;4.500;2023-01-29T02:05:32;102927.13;;;4.92;77.36
72685;BME280;61365;52.162;4.500;2023-01-29T02:08:29;102913.47;;;4.96;76.35
72685;BME280;61365;52.162;4.500;2023-01-29T02:11:26;102914.63;;;5.01;76.00
72685;BME280;61365;52.162;4.500;2023-01-29T02:13:52;102914.34;;;5.11;75.87
72685;BME280;61365;52.162;4.500;2023-01-29T02:16:20;102913.66;;;4.99;76.96
72685;BME280;61365;52.162;4.500;2023-01-29T02:18:48;102925.25;;;4.89;76.50
72685;BME280;61365;52.162;4.500;2023-01-29T02:24:44;102934.69;;;4.87;75.76
72685;BME280;61365;52.162;4.500;2023-01-29T02:28:11;102933.06;;;4.89;75.92
72685;BME280;61365;52.162;4.500;2023-01-29T02:30:55;102926.41;;;4.94;76.58
72685;BME280;61365;52.162;4.500;2023-01-29T02:44:46;102916.72;;;4.92;77.11
72685;BME280;61365;52.162;4.500;2023-01-29T02:47:32;102914.19;;;4.77;76.76
72685;BME280;61365;52.162;4.500;2023-01-29T02:50:19;102917.66;;;4.77;77.12
72685;BME280;61365;52.162;4.500;2023-01-29T02:55:47;102906.22;;;4.90;76.96
72685;BME280;61365;52.162;4.500;2023-01-29T02:58:46;102903.56;;;4.89;77.38
72685;BME280;61365;52.162;4.500;2023-01-29T03:01:28;102906.63;;;4.81;78.57
72685;BME280;61365;52.162;4.500;2023-01-29T03:04:06;102892.88;;;4.84;77.81
72685;BME280;61365;52.162;4.500;2023-01-29T03:06:44;102902.97;;;4.78;78.55
72685;BME280;61365;52.162;4.500;2023-01-29T03:09:24;102905.69;;;4.81;78.56
72685;BME280;61365;52.162;4.500;2023-01-29T03:12:03;102899.78;;;4.84;78.60
72685;BME280;61365;52.162;4.500;2023-01-29T03:14:46;102896.28;;;4.83;77.96
72685;BME280;61365;52.162;4.500;2023-01-29T03:17:39;102902.22;;;4.80;78.18
72685;BME280;61365;52.162;4.500;2023-01-29T03:20:35;102891.81;;;4.80;78.79
72685;BME280;61365;52.162;4.500;2023-01-29T03:23:21;102880.34;;;4.77;79.08
72685;BME280;61365;52.162;4.500;2023-01-29T03:26:14;102880.34;;;4.77;79.34
72685;BME280;61365;52.162;4.500;2023-01-29T03:29:03;102873.09;;;4.71;79.31
72685;BME280;61365;52.162;4.500;2023-01-29T03:31:54;102874.81;;;4.71;79.64
72685;BME280;61365;52.162;4.500;2023-01-29T03:34:44;102895.00;;;4.60;79.70
72685;BME280;61365;52.162;4.500;2023-01-29T03:37:26;102891.31;;;4.56;79.00
72685;BME280;61365;52.162;4.500;2023-01-29T03:39:54;102892.31;;;4.58;79.30
72685;BME280;61365;52.162;4.500;2023-01-29T03:45:33;102881.91;;;4.58;80.85
72685;BME280;61365;52.162;4.500;2023-01-29T03:51:34;102867.03;;;4.56;80.75
72685;BME280;61365;52.162;4.500;2023-01-29T03:54:07;102867.41;;;4.47;80.75
72685;BME280;61365;52.162;4.500;2023-01-29T03:56:54;102865.50;;;4.44;80.51
72685;BME280;61365;52.162;4.500;2023-01-29T04:02:08;102870.38;;;4.53;79.22
72685;BME280;61365;52.162;4.500;2023-01-29T04:04:42;102870.88;;;4.47;80.39
72685;BME280;61365;52.162;4.500;2023-01-29T04:07:15;102872.66;;;4.63;78.98
72685;BME280;61365;52.162;4.500;2023-01-29T04:09:59;102865.41;;;4.58;80.32
72685;BME280;61365;52.162;4.500;2023-01-29T04:12:37;102855.66;;;4.54;79.87
72685;BME280;61365;52.162;4.500;2023-01-29T04:15:12;102845.50;;;4.58;79.46
72685;BME280;61365;52.162;4.500;2023-01-29T04:17:43;102853.13;;;4.55;79.39
72685;BME280;61365;52.162;4.500;2023-01-29T04:20:14;102855.00;;;4.58;79.19
72685;BME280;61365;52.162;4.500;2023-01-29T04:22:45;102847.28;;;4.59;79.40
72685;BME280;61365;52.162;4.500;2023-01-29T04:25:19;102855.88;;;4.73;78.88
72685;BME280;61365;52.162;4.500;2023-01-29T04:28:15;102841.56;;;4.65;79.23
72685;BME280;61365;52.162;4.500;2023-01-29T04:31:01;102840.00;;;4.69;79.58
72685;BME280;61365;52.162;4.500;2023-01-29T04:36:35;102832.66;;;4.61;79.57
72685;BME280;61365;52.162;4.500;2023-01-29T04:39:48;102827.47;;;4.61;80.05
72685;BME280;61365;52.162;4.500;2023-01-29T04:42:41;102824.00;;;4.61;79.21
72685;BME280;61365;52.162;4.500;2023-01-29T04:48:29;102822.28;;;4.61;79.36
72685;BME280;61365;52.162;4.500;2023-01-29T04:51:21;102808.56;;;4.64;79.13
72685;BME280;61365;52.162;4.500;2023-01-29T04:54:26;102808.09;;;4.56;78.77
72685;BME280;61365;52.162;4.500;2023-01-29T04:57:23;102815.09;;;4.57;78.47
72685;BME280;61365;52.162;4.500;2023-01-29T05:00:12;102812.84;;;4.63;78.94
72685;BME280;61365;52.162;4.500;2023-01-29T05:02:52;102810.88;;;4.59;79.55
72685;BME280;61365;52.162;4.500;2023-01-29T05:05:19;102804.66;;;4.72;78.51
72685;BME280;61365;52.162;4.500;2023-01-29T05:07:47;102804.75;;;4.74;77.77
72685;BME280;61365;52.162;4.500;2023-01-29T05:10:16;102803.59;;;4.69;78.12
72685;BME280;61365;52.162;4.500;2023-01-29T05:12:47;102801.41;;;4.76;77.10
72685;BME280;61365;52.162;4.500;2023-01-29T05:15:23;102805.75;;;4.76;77.66
72685;BME280;61365;52.162;4.500;2023-01-29T05:17:55;102802.06;;;4.72;77.84
72685;BME280;61365;52.162;4.500;2023-01-29T05:20:26;102792.63;;;4.74;77.49
72685;BME280;61365;52.162;4.500;2023-01-29T05:22:58;102786.97;;;4.81;77.47
72685;BME280;61365;52.162;4.500;2023-01-29T05:25:27;102782.78;;;4.69;76.92
72685;BME280;61365;52.162;4.500;2023-01-29T05:27:55;102767.84;;;4.81;78.24
72685;BME280;61365;52.162;4.500;2023-01-29T05:30:57;102768.59;;;4.78;77.93
72685;BME280;61365;52.162;4.500;2023-01-29T05:33:29;102774.41;;;4.74;77.81
72685;BME280;61365;52.162;4.500;2023-01-29T05:35:57;102779.44;;;4.71;78.24
72685;BME280;61365;52.162;4.500;2023-01-29T05:38:24;102768.66;;;4.80;77.93
72685;BME280;61365;52.162;4.500;2023-01-29T05:40:51;102774.09;;;4.68;77.67
72685;BME280;61365;52.162;4.500;2023-01-29T05:43:19;102771.13;;;4.77;77.90
72685;BME280;61365;52.162;4.500;2023-01-29T05:45:57;102779.00;;;4.78;77.73
72685;BME280;61365;52.162;4.500;2023-01-29T05:48:26;102778.59;;;4.87;77.71
72685;BME280;61365;52.162;4.500;2023-01-29T05:50:59;102796.31;;;4.78;77.93
72685;BME280;61365;52.162;4.500;2023-01-29T05:53:27;102785.69;;;4.90;78.16
72685;BME280;61365;52.162;4.500;2023-01-29T05:55:54;102789.09;;;4.89;77.62
72685;BME280;61365;52.162;4.500;2023-01-29T05:58:22;102791.25;;;4.81;77.58
72685;BME280;61365;52.162;4.500;2023-01-29T06:00:48;102775.56;;;4.79;78.15
72685;BME280;61365;52.162;4.500;2023-01-29T06:03:14;102774.13;;;5.01;78.37
72685;BME280;61365;52.162;4.500;2023-01-29T06:05:41;102766.78;;;4.94;77.81
72685;BME280;61365;52.162;4.500;2023-01-29T06:08:08;102770.78;;;4.71;78.47
72685;BME280;61365;52.162;4.500;2023-01-29T06:10:34;102759.78;;;4.76;78.67
72685;BME280;61365;52.162;4.500;2023-01-29T06:13:01;102764.03;;;4.74;78.35
72685;BME280;61365;52.162;4.500;2023-01-29T06:15:27;102761.53;;;4.76;78.55
72685;BME280;61365;52.162;4.500;2023-01-29T06:17:54;102752.34;;;4.83;78.71
72685;BME280;61365;52.162;4.500;2023-01-29T06:20:22;102751.75;;;4.88;79.05
72685;BME280;61365;52.162;4.500;2023-01-29T06:22:49;102751.69;;;4.87;77.95
72685;BME280;61365;52.162;4.500;2023-01-29T06:25:15;102752.34;;;4.83;78.82
72685;BME280;61365;52.162;4.500;2023-01-29T06:27:42;102760.13;;;4.83;78.71
72685;BME280;61365;52.162;4.500;2023-01-29T06:30:09;102746.22;;;4.82;78.86
72685;BME280;61365;52.162;4.500;2023-01-29T06:32:35;102747.38;;;4.87;78.94
72685;BME280;61365;52.162;4.500;2023-01-29T06:35:02;102752.16;;;4.96;78.73
72685;BME280;61365;52.162;4.500;2023-01-29T06:37:29;102740.31;;;4.85;79.40
72685;BME280;61365;52.162;4.500;2023-01-29T06:39:55;102736.53;;;4.96;79.08
72685;BME280;61365;52.162;4.500;2023-01-29T06:42:21;102732.34;;;4.81;79.07
72685;BME280;61365;52.162;4.500;2023-01-29T06:44:55;102735.34;;;4.89;78.98
72685;BME280;61365;52.162;4.500;2023-01-29T06:47:23;102733.78;;;5.09;79.10
72685;BME280;61365;52.162;4.500;2023-01-29T06:49:49;102736.88;;;4.86;78.18
72685;BME280;61365;52.162;4.500;2023-01-29T06:52:16;102734.34;;;4.87;78.50
72685;BME280;61365;52.162;4.500;2023-01-29T06:54:42;102737.13;;;4.90;78.68
72685;BME280;61365;52.162;4.500;2023-01-29T06:57:08;102732.00;;;4.92;79.02
72685;BME280;61365;52.162;4.500;2023-01-29T06:59:35;102734.19;;;4.84;79.07
72685;BME280;61365;52.162;4.500;2023-01-29T07:02:02;102737.94;;;4.89;78.83
72685;BME280;61365;52.162;4.500;2023-01-29T07:04:29;102739.78;;;4.92;78.50
72685;BME280;61365;52.162;4.500;2023-01-29T07:06:55;102734.69;;;4.77;78.18
72685;BME280;61365;52.162;4.500;2023-01-29T07:09:25;102738.50;;;4.84;78.81
72685;BME280;61365;52.162;4.500;2023-01-29T07:11:57;102736.09;;;4.87;77.94
72685;BME280;61365;52.162;4.500;2023-01-29T07:14:24;102738.50;;;4.84;78.10
72685;BME280;61365;52.162;4.500;2023-01-29T07:16:50;102735.16;;;4.70;78.46
72685;BME280;61365;52.162;4.500;2023-01-29T07:19:16;102738.41;;;4.82;78.95
72685;BME280;61365;52.162;4.500;2023-01-29T07:21:43;102744.28;;;4.78;78.48
72685;BME280;61365;52.162;4.500;2023-01-29T07:24:09;102743.88;;;4.87;77.57
72685;BME280;61365;52.162;4.500;2023-01-29T07:26:35;102755.28;;;4.89;77.57
72685;BME280;61365;52.162;4.500;2023-01-29T07:29:03;102752.81;;;4.92;77.78
72685;BME280;61365;52.162;4.500;2023-01-29T07:31:30;102738.28;;;4.79;77.68
72685;BME280;61365;52.162;4.500;2023-01-29T07:33:57;102736.22;;;4.73;78.30
72685;BME280;61365;52.162;4.500;2023-01-29T07:36:25;102729.81;;;4.83;78.11
72685;BME280;61365;52.162;4.500;2023-01-29T07:38:53;102740.63;;;4.91;77.95
72685;BME280;61365;52.162;4.500;2023-01-29T07:41:19;102741.28;;;4.87;78.28
72685;BME280;61365;52.162;4.500;2023-01-29T07:43:46;102733.22;;;4.82;78.11
72685;BME280;61365;52.162;4.500;2023-01-29T07:46:13;102738.41;;;4.82;78.67
72685;BME280;61365;52.162;4.500;2023-01-29T07:48:39;102736.47;;;4.94;78.54
72685;BME280;61365;52.162;4.500;2023-01-29T07:51:06;102732.25;;;4.96;78.42
72685;BME280;61365;52.162;4.500;2023-01-29T07:53:32;102734.44;;;5.05;78.23
72685;BME280;61365;52.162;4.500;2023-01-29T07:55:59;102723.88;;;5.02;78.28
72685;BME280;61365;52.162;4.500;2023-01-29T07:58:25;102722.19;;;5.03;77.78
72685;BME280;61365;52.162;4.500;2023-01-29T08:00:51;102720.88;;;4.94;78.71
72685;BME280;61365;52.162;4.500;2023-01-29T08:03:18;102721.75;;;5.11;77.73
72685;BME280;61365;52.162;4.500;2023-01-29T08:05:45;102721.25;;;5.02;77.91
72685;BME280;61365;52.162;4.500;2023-01-29T08:08:13;102724.63;;;5.00;78.85
72685;BME280;61365;52.162;4.500;2023-01-29T08:10:40;102716.88;;;5.01;78.18
72685;BME280;61365;52.162;4.500;2023-01-29T08:13:08;102708.75;;;4.95;78.11
72685;BME280;61365;52.162;4.500;2023-01-29T08:15:35;102706.13;;;4.95;79.03
72685;BME280;61365;52.162;4.500;2023-01-29T08:18:02;102700.78;;;4.92;78.55
72685;BME280;61365;52.162;4.500;2023-01-29T08:20:29;102700.69;;;4.90;79.49
72685;BME280;61365;52.162;4.500;2023-01-29T08:23:04;102704.78;;;5.02;79.62
72685;BME280;61365;52.162;4.500;2023-01-29T08:25:37;102691.88;;;5.05;79.10
72685;BME280;61365;52.162;4.500;2023-01-29T08:28:03;102702.06;;;5.17;78.62
72685;BME280;61365;52.162;4.500;2023-01-29T08:30:32;102687.22;;;5.32;78.61
72685;BME280;61365;52.162;4.500;2023-01-29T08:32:59;102694.38;;;5.36;78.47
72685;BME280;61365;52.162;4.500;2023-01-29T08:35:26;102687.06;;;5.29;78.27
72685;BME280;61365;52.162;4.500;2023-01-29T08:40:20;102683.91;;;5.18;78.40
72685;BME280;61365;52.162;4.500;2023-01-29T08:42:47;102683.66;;;5.30;78.01
72685;BME280;61365;52.162;4.500;2023-01-29T08:45:13;102688.78;;;5.29;77.93
72685;BME280;61365;52.162;4.500;2023-01-29T08:47:48;102691.19;;;5.42;77.74
72685;BME280;61365;52.162;4.500;2023-01-29T08:50:16;102685.31;;;5.46;77.42
72685;BME280;61365;52.162;4.500;2023-01-29T08:52:43;102678.78;;;5.54;77.29
72685;BME280;61365;52.162;4.500;2023-01-29T08:55:10;102675.88;;;5.66;76.43
72685;BME280;61365;52.162;4.500;2023-01-29T08:57:38;102676.31;;;5.57;76.19
72685;BME280;61365;52.162;4.500;2023-01-29T09:00:06;102672.47;;;5.67;76.42
72685;BME280;61365;52.162;4.500;2023-01-29T09:02:34;102667.63;;;5.75;76.40
72685;BME280;61365;52.162;4.500;2023-01-29T09:05:00;102676.31;;;5.76;76.07
72685;BME280;61365;52.162;4.500;2023-01-29T09:07:28;102666.81;;;5.76;76.18
72685;BME280;61365;52.162;4.500;2023-01-29T09:09:54;102672.16;;;5.61;76.27
72685;BME280;61365;52.162;4.500;2023-01-29T09:12:21;102664.78;;;5.70;77.21
72685;BME280;61365;52.162;4.500;2023-01-29T09:14:47;102658.47;;;5.65;76.52
72685;BME280;61365;52.162;4.500;2023-01-29T09:17:13;102660.03;;;5.80;76.43
72685;BME280;61365;52.162;4.500;2023-01-29T09:19:40;102662.16;;;5.89;76.86
72685;BME280;61365;52.162;4.500;2023-01-29T09:22:06;102659.50;;;5.87;76.85
72685;BME280;61365;52.162;4.500;2023-01-29T09:24:33;102662.94;;;6.04;77.53
72685;BME280;61365;52.162;4.500;2023-01-29T09:27:00;102669.91;;;5.87;76.66
72685;BME280;61365;52.162;4.500;2023-01-29T09:29:27;102670.22;;;5.75;77.28
72685;BME280;61365;52.162;4.500;2023-01-29T09:31:53;102673.75;;;5.95;78.36
72685;BME280;61365;52.162;4.500;2023-01-29T09:34:19;102671.59;;;6.03;76.61
72685;BME280;61365;52.162;4.500;2023-01-29T09:36:46;102677.53;;;6.00;76.73
72685;BME280;61365;52.162;4.500;2023-01-29T09:39:12;102679.47;;;6.05;76.18
72685;BME280;61365;52.162;4.500;2023-01-29T09:42:12;102673.59;;;6.09;76.33
72685;BME280;61365;52.162;4.500;2023-01-29T09:45:09;102674.13;;;6.21;75.61
72685;BME280;61365;52.162;4.500;2023-01-29T09:47:42;102668.75;;;6.36;77.42
72685;BME280;61365;52.162;4.500;2023-01-29T09:50:15;102657.81;;;6.25;75.96
72685;BME280;61365;52.162;4.500;2023-01-29T09:52:49;102648.63;;;6.14;76.92
72685;BME280;61365;52.162;4.500;2023-01-29T09:55:27;102652.69;;;6.27;77.56
72685;BME280;61365;52.162;4.500;2023-01-29T09:58:12;102649.03;;;6.23;76.15
72685;BME280;61365;52.162;4.500;2023-01-29T10:00:53;102654.00;;;6.17;76.78
72685;BME280;61365;52.162;4.500;2023-01-29T10:23:32;102634.31;;;5.88;77.31
72685;BME280;61365;52.162;4.500;2023-01-29T10:26:02;102631.72;;;5.88;77.45
72685;BME280;61365;52.162;4.500;2023-01-29T10:28:33;102628.91;;;6.01;78.55
72685;BME280;61365;52.162;4.500;2023-01-29T10:31:12;102635.66;;;5.97;77.98
72685;BME280;61365;52.162;4.500;2023-01-29T10:33:45;102629.94;;;5.86;77.54
72685;BME280;61365;52.162;4.500;2023-01-29T10:36:21;102625.13;;;5.58;78.31
72685;BME280;61365;52.162;4.500;2023-01-29T10:38:53;102627.44;;;5.52;78.63
72685;BME280;61365;52.162;4.500;2023-01-29T11:01:01;102602.09;;;5.85;78.68
72685;BME280;61365;52.162;4.500;2023-01-29T11:03:29;102597.31;;;5.95;78.92
72685;BME280;61365;52.162;4.500;2023-01-29T11:06:00;102601.78;;;5.97;79.37
72685;BME280;61365;52.162;4.500;2023-01-29T11:08:41;102595.69;;;5.79;78.96
72685;BME280;61365;52.162;4.500;2023-01-29T11:11:16;102588.84;;;5.81;77.93
72685;BME280;61365;52.162;4.500;2023-01-29T11:13:59;102597.84;;;5.88;78.66
72685;BME280;61365;52.162;4.500;2023-01-29T11:16:43;102590.19;;;5.91;78.11
72685;BME280;61365;52.162;4.500;2023-01-29T11:19:12;102587.88;;;5.97;78.26
72685;BME280;61365;52.162;4.500;2023-01-29T11:21:56;102578.25;;;5.96;78.02
72685;BME280;61365;52.162;4.500;2023-01-29T11:24:26;102585.06;;;5.92;77.48
72685;BME280;61365;52.162;4.500;2023-01-29T11:26:56;102576.66;;;5.99;79.43
72685;BME280;61365;52.162;4.500;2023-01-29T11:29:36;102574.38;;;6.25;78.90
72685;BME280;61365;52.162;4.500;2023-01-29T11:32:31;102566.38;;;6.21;77.94
72685;BME280;61365;52.162;4.500;2023-01-29T11:37:41;102558.59;;;6.61;78.00
72685;BME280;61365;52.162;4.500;2023-01-29T11:40:36;102559.19;;;6.56;78.00
72685;BME280;61365;52.162;4.500;2023-01-29T11:45:54;102549.81;;;6.59;77.79
72685;BME280;61365;52.162;4.500;2023-01-29T11:48:41;102543.06;;;6.65;78.95
72685;BME280;61365;52.162;4.500;2023-01-29T11:51:20;102534.41;;;6.87;78.24
72685;BME280;61365;52.162;4.500;2023-01-29T11:53:54;102530.22;;;6.69;77.47
72685;BME280;61365;52.162;4.500;2023-01-29T11:56:42;102528.88;;;6.38;79.49
72685;BME280;61365;52.162;4.500;2023-01-29T11:59:32;102520.72;;;6.50;79.20
72685;BME280;61365;52.162;4.500;2023-01-29T12:05:13;102509.94;;;6.42;77.89
72685;BME280;61365;52.162;4.500;2023-01-29T12:07:44;102501.25;;;6.22;77.59
72685;BME280;61365;52.162;4.500;2023-01-29T12:15:35;102494.84;;;6.35;79.18
72685;BME280;61365;52.162;4.500;2023-01-29T12:21:02;102479.06;;;6.52;78.70
72685;BME280;61365;52.162;4.500;2023-01-29T12:23:52;102467.06;;;6.57;80.04
72685;BME280;61365;52.162;4.500;2023-01-29T12:26:43;102468.81;;;6.78;79.57
72685;BME280;61365;52.162;4.500;2023-01-29T12:29:24;102463.25;;;6.70;79.79
72685;BME280;61365;52.162;4.500;2023-01-29T12:35:05;102455.66;;;6.74;78.47
72685;BME280;61365;52.162;4.500;2023-01-29T12:40:29;102444.56;;;6.59;79.71
72685;BME280;61365;52.162;4.500;2023-01-29T12:43:10;102440.13;;;6.78;79.37
72685;BME280;61365;52.162;4.500;2023-01-29T12:45:43;102419.28;;;6.79;79.02
72685;BME280;61365;52.162;4.500;2023-01-29T12:48:29;102426.25;;;7.01;78.07
72685;BME280;61365;52.162;4.500;2023-01-29T12:51:08;102414.06;;;6.79;78.17
72685;BME280;61365;52.162;4.500;2023-01-29T12:54:00;102403.94;;;6.87;77.34
72685;BME280;61365;52.162;4.500;2023-01-29T12:56:38;102402.97;;;6.85;77.93
72685;BME280;61365;52.162;4.500;2023-01-29T12:59:31;102391.03;;;6.69;78.96
72685;BME280;61365;52.162;4.500;2023-01-29T13:02:14;102381.94;;;6.80;77.51
72685;BME280;61365;52.162;4.500;2023-01-29T13:04:58;102375.34;;;6.67;78.72
72685;BME280;61365;52.162;4.500;2023-01-29T13:07:45;102368.41;;;6.68;78.35
72685;BME280;61365;52.162;4.500;2023-01-29T13:10:21;102365.81;;;6.90;77.11
72685;BME280;61365;52.162;4.500;2023-01-29T13:13:00;102351.19;;;6.96;77.37
72685;BME280;61365;52.162;4.500;2023-01-29T13:15:35;102344.69;;;7.07;77.08
72685;BME280;61365;52.162;4.500;2023-01-29T13:20:54;102337.53;;;7.26;75.79
72685;BME280;61365;52.162;4.500;2023-01-29T13:23:29;102326.13;;;6.99;75.51
72685;BME280;61365;52.162;4.500;2023-01-29T13:26:04;102321.97;;;7.04;76.65
72685;BME280;61365;52.162;4.500;2023-01-29T13:28:31;102321.34;;;6.87;77.18
72685;BME280;61365;52.162;4.500;2023-01-29T13:31:19;102323.66;;;6.80;76.86
72685;BME280;61365;52.162;4.500;2023-01-29T13:33:54;102318.84;;;6.90;76.94
72685;BME280;61365;52.162;4.500;2023-01-29T13:36:25;102313.66;;;6.92;76.39
72685;BME280;61365;52.162;4.500;2023-01-29T13:39:04;102311.22;;;6.97;77.89
72685;BME280;61365;52.162;4.500;2023-01-29T13:41:35;102306.66;;;6.91;76.48
72685;BME280;61365;52.162;4.500;2023-01-29T13:44:30;102306.25;;;7.03;77.78
72685;BME280;61365;52.162;4.500;2023-01-29T13:47:09;102311.09;;;6.94;76.17
72685;BME280;61365;52.162;4.500;2023-01-29T13:49:58;102300.31;;;7.07;76.63
72685;BME280;61365;52.162;4.500;2023-01-29T13:52:40;102291.81;;;6.88;76.39
72685;BME280;61365;52.162;4.500;2023-01-29T14:10:43;102265.69;;;7.13;77.01
72685;BME280;61365;52.162;4.500;2023-01-29T14:16:02;102268.63;;;6.98;77.92
72685;BME280;61365;52.162;4.500;2023-01-29T14:18:47;102256.72;;;7.04;77.24
72685;BME280;61365;52.162;4.500;2023-01-29T14:21:33;102259.22;;;7.01;77.68
72685;BME280;61365;52.162;4.500;2023-01-29T14:24:23;102255.06;;;7.32;77.49
72685;BME280;61365;52.162;4.500;2023-01-29T14:26:56;102255.59;;;7.22;76.52
72685;BME280;61365;52.162;4.500;2023-01-29T14:29:30;102258.44;;;7.28;77.05
72685;BME280;61365;52.162;4.500;2023-01-29T14:34:34;102255.44;;;7.17;77.32
72685;BME280;61365;52.162;4.500;2023-01-29T14:39:48;102238.66;;;7.11;77.77
72685;BME280;61365;52.162;4.500;2023-01-29T14:45:20;102231.25;;;7.23;77.58
72685;BME280;61365;52.162;4.500;2023-01-29T14:47:53;102233.25;;;7.30;77.92
72685;BME280;61365;52.162;4.500;2023-01-29T14:53:00;102235.25;;;6.89;78.79
72685;BME280;61365;52.162;4.500;2023-01-29T14:58:38;102230.69;;;7.07;77.48
72685;BME280;61365;52.162;4.500;2023-01-29T15:06:54;102220.63;;;6.93;78.36
72685;BME280;61365;52.162;4.500;2023-01-29T15:09:33;102214.00;;;7.02;78.45
72685;BME280;61365;52.162;4.500;2023-01-29T15:18:08;102211.94;;;6.69;79.31
72685;BME280;61365;52.162;4.500;2023-01-29T15:20:41;102213.88;;;6.75;79.32
72685;BME280;61365;52.162;4.500;2023-01-29T15:23:29;102209.34;;;6.69;78.47
72685;BME280;61365;52.162;4.500;2023-01-29T15:26:02;102207.13;;;6.80;81.09
72685;BME280;61365;52.162;4.500;2023-01-29T15:28:34;102208.44;;;6.69;79.30
72685;BME280;61365;52.162;4.500;2023-01-29T15:31:03;102204.97;;;6.70;79.94
72685;BME280;61365;52.162;4.500;2023-01-29T15:33:36;102199.34;;;7.06;79.41
72685;BME280;61365;52.162;4.500;2023-01-29T15:36:06;102198.84;;;6.92;78.76
72685;BME280;61365;52.162;4.500;2023-01-29T15:38:40;102195.16;;;6.87;80.36
72685;BME280;61365;52.162;4.500;2023-01-29T15:41:18;102205.72;;;6.90;80.32
72685;BME280;61365;52.162;4.500;2023-01-29T15:43:55;102210.78;;;6.85;79.55
72685;BME280;61365;52.162;4.500;2023-01-29T15:46:28;102201.91;;;6.80;79.66
72685;BME280;61365;52.162;4.500;2023-01-29T15:49:04;102213.13;;;6.78;80.94
72685;BME280;61365;52.162;4.500;2023-01-29T15:51:33;102213.41;;;6.85;81.30
72685;BME280;61365;52.162;4.500;2023-01-29T15:54:08;102203.00;;;6.87;79.71
72685;BME280;61365;52.162;4.500;2023-01-29T15:56:50;102203.41;;;6.73;79.76
72685;BME280;61365;52.162;4.500;2023-01-29T15:59:21;102207.84;;;6.76;81.01
72685;BME280;61365;52.162;4.500;2023-01-29T16:01:51;102203.28;;;6.70;80.35
72685;BME280;61365;52.162;4.500;2023-01-29T16:04:22;102205.06;;;6.96;80.82